createdAt,value
2023-03-22T00:07:24.814Z,101501.00
2023-03-22T00:17:47.833Z,101494.00
2023-03-22T00:28:09.446Z,101492.00
2023-03-22T00:38:42.633Z,101488.00
2023-03-22T00:49:05.374Z,101477.00
2023-03-22T00:59:29.009Z,101477.00
2023-03-22T01:09:51.036Z,101483.00
2023-03-22T01:20:14.592Z,101468.00
2023-03-22T01:30:37.000Z,101474.00
2023-03-22T01:41:00.419Z,101449.00
2023-03-22T01:51:26.136Z,101431.00
2023-03-22T02:02:02.882Z,101424.00
2023-03-22T02:12:34.718Z,101418.00
2023-03-22T02:23:22.432Z,101428.00
2023-03-22T02:34:05.300Z,101435.00
2023-03-22T02:44:36.595Z,101422.00
2023-03-22T02:55:06.574Z,101418.00
2023-03-22T03:05:33.473Z,101414.00
2023-03-22T03:15:59.305Z,101426.00
2023-03-22T03:26:25.599Z,101409.00
2023-03-22T03:36:54.530Z,101428.00
2023-03-22T03:47:17.978Z,101426.00
2023-03-22T03:57:40.130Z,101431.00
2023-03-22T04:08:04.139Z,101420.00
2023-03-22T04:18:29.707Z,101426.00
2023-03-22T04:28:56.693Z,101436.00
2023-03-22T04:39:19.736Z,101417.00
2023-03-22T04:49:52.172Z,101426.00
2023-03-22T05:00:15.365Z,101417.00
2023-03-22T05:10:42.203Z,101402.00
2023-03-22T05:21:06.806Z,101391.00
2023-03-22T05:31:34.458Z,101388.00
2023-03-22T05:41:57.245Z,101388.00
2023-03-22T05:52:20.422Z,101391.00
2023-03-22T06:03:03.710Z,101380.00
2023-03-22T06:13:29.257Z,101376.00
2023-03-22T06:23:50.878Z,101375.00
2023-03-22T06:34:15.346Z,101369.00
2023-03-22T06:44:37.610Z,101373.00
2023-03-22T06:55:11.110Z,101387.00
2023-03-22T07:05:33.200Z,101368.00
2023-03-22T07:15:58.380Z,101370.00
2023-03-22T07:26:43.192Z,101366.00
2023-03-22T07:37:11.988Z,101364.00
2023-03-22T07:47:41.060Z,101347.00
2023-03-22T07:58:13.997Z,101349.00
2023-03-22T08:08:37.950Z,101327.00
2023-03-22T08:19:01.567Z,101315.00
2023-03-22T08:29:25.830Z,101294.00
2023-03-22T08:39:49.168Z,101273.00
2023-03-22T08:50:34.916Z,101270.00
2023-03-22T09:01:14.292Z,101265.00
2023-03-22T09:11:44.792Z,101218.00
2023-03-22T09:22:08.679Z,101201.00
2023-03-22T09:32:41.700Z,101193.00
2023-03-22T09:43:10.376Z,101196.00
2023-03-22T09:53:33.952Z,101206.00
2023-03-22T10:04:12.074Z,101201.00
2023-03-22T10:14:39.154Z,101188.00
2023-03-22T10:25:03.761Z,101171.00
2023-03-22T10:35:26.360Z,101174.00
2023-03-22T10:45:50.850Z,101147.00
2023-03-22T10:56:15.616Z,101119.00
2023-03-22T11:06:44.256Z,101125.00
2023-03-22T11:17:12.600Z,101103.00
2023-03-22T11:27:36.412Z,101109.00
2023-03-22T11:37:59.168Z,101102.00
2023-03-22T11:48:24.850Z,101104.00
2023-03-22T11:58:56.473Z,101074.00
2023-03-22T12:09:27.040Z,101061.00
2023-03-22T12:19:56.297Z,101057.00
2023-03-22T12:30:22.233Z,101043.00
2023-03-22T12:40:44.515Z,101013.00
2023-03-22T12:51:09.038Z,100992.00
2023-03-22T13:01:36.191Z,100992.00
2023-03-22T13:12:30.625Z,100985.00
2023-03-22T13:23:25.102Z,100983.00
2023-03-22T13:33:54.512Z,100988.00
2023-03-22T13:44:29.853Z,100936.00
2023-03-22T13:54:57.192Z,100922.00
2023-03-22T14:05:22.183Z,100957.00
2023-03-22T14:15:50.079Z,100931.00
